Photometre #855[NE_1.6_Dp] Loftus_MO AOT

File : 20220923_855.hum

23/09/2022,06:51:59,TEMP=9.6,BA=5.64,STAT.A,ExtBa=12.30
23/09/2022,06:54:23,TEMP=10.0,BA=5.64,STAT.D,ExtBa=12.30
23/09/2022,06:56:28,TEMP=10.3,BA=5.64,STAT.A,ExtBa=12.30
23/09/2022,07:00:23,TEMP=10.2,BA=5.64,STAT.D,ExtBa=12.30
23/09/2022,07:02:21,TEMP=10.6,BA=5.64,STAT.A,ExtBa=12.20
23/09/2022,07:06:23,TEMP=10.5,BA=5.64,STAT.D,ExtBa=12.20
23/09/2022,07:08:22,TEMP=10.9,BA=5.64,STAT.A,ExtBa=12.20
23/09/2022,07:12:23,TEMP=10.8,BA=5.60,STAT.D,ExtBa=12.20
23/09/2022,07:15:23,TEMP=11.0,BA=5.60,STAT.D,ExtBa=12.20
23/09/2022,07:17:23,TEMP=11.4,BA=5.60,STAT.A,ExtBa=12.20
23/09/2022,07:21:23,TEMP=11.3,BA=5.64,STAT.D,ExtBa=12.20
23/09/2022,07:24:23,TEMP=11.5,BA=5.64,STAT.D,ExtBa=12.20
23/09/2022,07:26:22,TEMP=11.9,BA=5.64,STAT.A,ExtBa=12.20
23/09/2022,07:30:23,TEMP=11.8,BA=5.64,STAT.D,ExtBa=12.20
23/09/2022,07:33:23,TEMP=12.0,BA=5.64,STAT.D,ExtBa=12.20
23/09/2022,07:36:23,TEMP=12.2,BA=5.64,STAT.D,ExtBa=12.20
23/09/2022,07:38:22,TEMP=12.6,BA=5.64,STAT.B,ExtBa=12.20
23/09/2022,07:48:06,TEMP=13.2,BA=5.60,STAT.A,ExtBa=12.10
23/09/2022,07:50:47,TEMP=13.1,BA=5.60,STAT.A,ExtBa=12.10
23/09/2022,07:54:23,TEMP=13.2,BA=5.60,STAT.D,ExtBa=12.20
23/09/2022,07:56:38,TEMP=13.5,BA=5.60,STAT.A,ExtBa=12.10
23/09/2022,08:00:23,TEMP=13.5,BA=5.64,STAT.D,ExtBa=12.20
23/09/2022,08:03:23,TEMP=13.7,BA=5.64,STAT.D,ExtBa=12.20
23/09/2022,08:05:26,TEMP=14.1,BA=5.64,STAT.A,ExtBa=12.20
23/09/2022,08:09:23,TEMP=13.9,BA=5.64,STAT.D,ExtBa=12.20
23/09/2022,08:12:23,TEMP=14.1,BA=5.60,STAT.D,ExtBa=12.20
23/09/2022,08:15:00,TEMP=14.3,BA=5.60,STAT.C,ExtBa=12.20
23/09/2022,08:38:46,TEMP=15.2,BA=5.60,STAT.b=11.0
23/09/2022,08:39:28,TEMP=15.2,BA=5.60,STAT.A,ExtBa=12.10
23/09/2022,08:42:44,TEMP=14.8,BA=5.56,STAT.A,ExtBa=12.10
23/09/2022,08:45:23,TEMP=14.8,BA=5.56,STAT.D,ExtBa=12.10
23/09/2022,08:48:23,TEMP=14.6,BA=5.56,STAT.D,ExtBa=12.20
23/09/2022,08:51:23,TEMP=14.6,BA=5.64,STAT.D,ExtBa=12.20
23/09/2022,08:54:23,TEMP=14.6,BA=5.64,STAT.D,ExtBa=12.20
23/09/2022,08:56:35,TEMP=14.8,BA=5.64,STAT.F,ExtBa=12.10
23/09/2022,09:22:42,TEMP=15.5,BA=5.52,STAT.b=11.0
23/09/2022,09:23:17,TEMP=15.5,BA=5.52,STAT.b=11.0
23/09/2022,09:29:15,TEMP=15.1,BA=5.52,STAT.D,ExtBa=12.10
23/09/2022,09:33:23,TEMP=15.3,BA=5.60,STAT.D,ExtBa=12.10
23/09/2022,09:36:23,TEMP=15.5,BA=5.60,STAT.D,ExtBa=12.10
23/09/2022,09:39:23,TEMP=15.6,BA=5.60,STAT.D,ExtBa=12.10
23/09/2022,09:41:33,TEMP=15.8,BA=5.60,STAT.D,ExtBa=12.10
23/09/2022,09:45:23,TEMP=15.7,BA=5.60,STAT.D,ExtBa=12.10
23/09/2022,09:48:23,TEMP=15.8,BA=5.60,STAT.D,ExtBa=12.10
23/09/2022,09:51:23,TEMP=15.9,BA=5.64,STAT.D,ExtBa=12.10
23/09/2022,09:54:24,TEMP=15.9,BA=5.64,STAT.D,ExtBa=12.10
23/09/2022,09:56:35,TEMP=16.1,BA=5.64,STAT.F,ExtBa=12.10
23/09/2022,10:24:24,TEMP=16.9,BA=5.56,STAT.b=11.0
23/09/2022,10:26:18,TEMP=16.9,BA=5.56,STAT.b=11.0
23/09/2022,10:26:48,TEMP=16.7,BA=5.56,STAT.D,ExtBa=12.10
23/09/2022,10:30:23,TEMP=16.5,BA=5.64,STAT.D,ExtBa=12.10
23/09/2022,10:33:24,TEMP=16.5,BA=5.64,STAT.D,ExtBa=12.10
23/09/2022,10:36:24,TEMP=16.5,BA=5.64,STAT.D,ExtBa=12.10
23/09/2022,10:39:24,TEMP=16.5,BA=5.64,STAT.D,ExtBa=12.10
23/09/2022,10:41:34,TEMP=16.8,BA=5.56,STAT.D,ExtBa=12.10
23/09/2022,10:45:24,TEMP=16.5,BA=5.56,STAT.D,ExtBa=12.10
23/09/2022,10:48:24,TEMP=16.6,BA=5.56,STAT.D,ExtBa=12.10
23/09/2022,10:51:24,TEMP=16.6,BA=5.60,STAT.D,ExtBa=12.10
23/09/2022,10:54:24,TEMP=16.7,BA=5.60,STAT.D,ExtBa=12.10
23/09/2022,10:56:35,TEMP=16.9,BA=5.60,STAT.F,ExtBa=12.10
23/09/2022,11:20:56,TEMP=17.5,BA=5.56,STAT.D,ExtBa=12.10
23/09/2022,11:24:24,TEMP=17.1,BA=5.56,STAT.D,ExtBa=12.10
23/09/2022,11:26:34,TEMP=17.3,BA=5.56,STAT.D,ExtBa=12.10
23/09/2022,11:30:24,TEMP=17.0,BA=5.64,STAT.D,ExtBa=12.10
23/09/2022,11:33:24,TEMP=17.1,BA=5.64,STAT.D,ExtBa=12.10
23/09/2022,11:36:24,TEMP=17.2,BA=5.64,STAT.D,ExtBa=12.10
23/09/2022,11:39:24,TEMP=17.3,BA=5.64,STAT.D,ExtBa=12.10
23/09/2022,11:41:34,TEMP=17.5,BA=5.56,STAT.D,ExtBa=12.10
23/09/2022,11:45:24,TEMP=17.2,BA=5.56,STAT.D,ExtBa=12.10
23/09/2022,11:48:24,TEMP=17.3,BA=5.56,STAT.D,ExtBa=12.10
23/09/2022,11:51:24,TEMP=17.3,BA=5.56,STAT.D,ExtBa=12.10
23/09/2022,11:54:24,TEMP=17.3,BA=5.56,STAT.D,ExtBa=12.10
23/09/2022,11:56:35,TEMP=17.5,BA=5.56,STAT.F,ExtBa=12.10
23/09/2022,12:21:01,TEMP=18.5,BA=5.52,STAT.D,ExtBa=12.10
23/09/2022,12:24:24,TEMP=18.2,BA=5.52,STAT.D,ExtBa=12.10
23/09/2022,12:26:34,TEMP=18.4,BA=5.52,STAT.D,ExtBa=12.10
23/09/2022,12:30:24,TEMP=18.1,BA=5.64,STAT.D,ExtBa=12.10
23/09/2022,12:33:24,TEMP=18.1,BA=5.64,STAT.D,ExtBa=12.10
23/09/2022,12:36:24,TEMP=18.1,BA=5.64,STAT.D,ExtBa=12.10
23/09/2022,12:39:24,TEMP=18.0,BA=5.64,STAT.D,ExtBa=12.10
23/09/2022,12:41:34,TEMP=18.2,BA=5.56,STAT.D,ExtBa=12.10
23/09/2022,12:45:24,TEMP=18.1,BA=5.56,STAT.D,ExtBa=12.10
23/09/2022,12:48:24,TEMP=18.2,BA=5.56,STAT.D,ExtBa=12.10
23/09/2022,12:51:24,TEMP=18.2,BA=5.60,STAT.D,ExtBa=12.10
23/09/2022,12:54:24,TEMP=18.2,BA=5.60,STAT.D,ExtBa=12.10
23/09/2022,12:56:35,TEMP=18.4,BA=5.60,STAT.F,ExtBa=12.10
23/09/2022,13:21:36,TEMP=19.2,BA=5.52,STAT.D,ExtBa=12.10
23/09/2022,13:26:34,TEMP=18.6,BA=5.52,STAT.D,ExtBa=12.10
23/09/2022,13:30:24,TEMP=18.5,BA=5.64,STAT.D,ExtBa=12.10
23/09/2022,13:33:24,TEMP=18.6,BA=5.64,STAT.D,ExtBa=12.10
23/09/2022,13:36:24,TEMP=18.6,BA=5.64,STAT.D,ExtBa=12.10
23/09/2022,13:39:24,TEMP=18.6,BA=5.64,STAT.D,ExtBa=12.10
23/09/2022,13:41:34,TEMP=18.9,BA=5.52,STAT.D,ExtBa=12.10
23/09/2022,13:45:24,TEMP=18.6,BA=5.52,STAT.D,ExtBa=12.10
23/09/2022,13:48:23,TEMP=18.7,BA=5.52,STAT.D,ExtBa=12.10
23/09/2022,13:51:25,TEMP=18.7,BA=5.60,STAT.D,ExtBa=12.10
23/09/2022,13:54:24,TEMP=18.8,BA=5.60,STAT.D,ExtBa=12.10
23/09/2022,13:56:35,TEMP=19.0,BA=5.60,STAT.F,ExtBa=12.10
23/09/2022,14:20:45,TEMP=19.5,BA=5.52,STAT.D,ExtBa=12.10
23/09/2022,14:24:23,TEMP=19.0,BA=5.52,STAT.D,ExtBa=12.10
23/09/2022,14:26:33,TEMP=19.2,BA=5.52,STAT.D,ExtBa=12.10
23/09/2022,14:30:23,TEMP=18.9,BA=5.60,STAT.D,ExtBa=12.10
23/09/2022,14:33:23,TEMP=18.9,BA=5.60,STAT.D,ExtBa=12.10
23/09/2022,14:36:23,TEMP=19.0,BA=5.60,STAT.D,ExtBa=12.10
23/09/2022,14:39:23,TEMP=18.9,BA=5.60,STAT.D,ExtBa=12.10
23/09/2022,14:41:33,TEMP=19.1,BA=5.52,STAT.D,ExtBa=12.10
23/09/2022,14:45:23,TEMP=18.7,BA=5.52,STAT.D,ExtBa=12.10
23/09/2022,14:48:23,TEMP=18.7,BA=5.52,STAT.D,ExtBa=12.10
23/09/2022,14:51:23,TEMP=18.6,BA=5.52,STAT.D,ExtBa=12.10
23/09/2022,14:54:23,TEMP=18.5,BA=5.52,STAT.D,ExtBa=12.10
23/09/2022,14:56:35,TEMP=18.6,BA=5.52,STAT.F,ExtBa=12.10
23/09/2022,15:20:56,TEMP=19.4,BA=5.52,STAT.A,ExtBa=12.10
23/09/2022,15:24:23,TEMP=19.1,BA=5.52,STAT.D,ExtBa=12.10
23/09/2022,15:26:34,TEMP=19.4,BA=5.52,STAT.A,ExtBa=12.10
23/09/2022,15:30:23,TEMP=19.0,BA=5.60,STAT.D,ExtBa=12.10
23/09/2022,15:33:23,TEMP=18.9,BA=5.60,STAT.D,ExtBa=12.10
23/09/2022,15:36:23,TEMP=18.9,BA=5.60,STAT.D,ExtBa=12.10
23/09/2022,15:38:22,TEMP=19.1,BA=5.60,STAT.C,ExtBa=12.10
23/09/2022,16:03:01,TEMP=18.5,BA=5.52,STAT.A,ExtBa=12.10
23/09/2022,16:06:20,TEMP=17.9,BA=5.52,STAT.A,ExtBa=12.10
23/09/2022,16:08:34,TEMP=18.1,BA=5.52,STAT.A,ExtBa=12.10
23/09/2022,16:10:42,TEMP=18.0,BA=5.52,STAT.A,ExtBa=12.10
23/09/2022,16:15:23,TEMP=17.6,BA=5.52,STAT.D,ExtBa=12.10
23/09/2022,16:17:31,TEMP=17.9,BA=5.52,STAT.B,ExtBa=12.10
23/09/2022,16:27:23,TEMP=17.4,BA=5.52,STAT.D,ExtBa=12.10
23/09/2022,16:29:21,TEMP=17.6,BA=5.52,STAT.A,ExtBa=12.10
23/09/2022,16:33:23,TEMP=17.0,BA=5.52,STAT.D,ExtBa=12.10
23/09/2022,16:36:23,TEMP=17.0,BA=5.52,STAT.D,ExtBa=12.10
23/09/2022,16:38:26,TEMP=17.2,BA=5.52,STAT.A,ExtBa=12.10
23/09/2022,16:42:23,TEMP=16.7,BA=5.52,STAT.D,ExtBa=12.10
23/09/2022,16:45:08,TEMP=16.8,BA=5.52,STAT.A,ExtBa=12.10
23/09/2022,16:51:32,TEMP=16.2,BA=5.52,STAT.D,ExtBa=12.10
23/09/2022,16:53:31,TEMP=16.5,BA=5.52,STAT.A,ExtBa=12.10
23/09/2022,16:56:40,TEMP=16.2,BA=5.52,STAT.A,ExtBa=12.10
23/09/2022,17:00:23,TEMP=15.8,BA=5.60,STAT.D,ExtBa=12.10
23/09/2022,17:02:24,TEMP=16.0,BA=5.60,STAT.A,ExtBa=12.10